sensor_id;sensor_type;location;lat;lon;timestamp;temperature;humidity
72106;SHT30;59975;47.646;18.318;2022-08-21T00:01:05;19.12;85.68
72106;SHT30;59975;47.646;18.318;2022-08-21T00:03:32;19.12;85.72
72106;SHT30;59975;47.646;18.318;2022-08-21T00:09:20;19.12;85.62
72106;SHT30;59975;47.646;18.318;2022-08-21T00:11:47;19.12;85.83
72106;SHT30;59975;47.646;18.318;2022-08-21T00:17:34;19.13;86.13
72106;SHT30;59975;47.646;18.318;2022-08-21T00:20:04;19.15;85.65
72106;SHT30;59975;47.646;18.318;2022-08-21T00:22:31;19.15;85.57
72106;SHT30;59975;47.646;18.318;2022-08-21T00:24:58;19.12;85.60
72106;SHT30;59975;47.646;18.318;2022-08-21T00:27:25;19.09;85.74
72106;SHT30;59975;47.646;18.318;2022-08-21T00:29:51;19.06;85.89
72106;SHT30;59975;47.646;18.318;2022-08-21T00:32:20;19.08;86.06
72106;SHT30;59975;47.646;18.318;2022-08-21T00:34:47;19.08;85.89
72106;SHT30;59975;47.646;18.318;2022-08-21T00:43:58;19.06;85.89
72106;SHT30;59975;47.646;18.318;2022-08-21T00:46:24;19.03;85.93
72106;SHT30;59975;47.646;18.318;2022-08-21T00:48:51;19.01;85.99
72106;SHT30;59975;47.646;18.318;2022-08-21T00:58:05;18.96;86.04
72106;SHT30;59975;47.646;18.318;2022-08-21T01:00:37;18.98;86.05
72106;SHT30;59975;47.646;18.318;2022-08-21T01:03:17;19.02;85.69
72106;SHT30;59975;47.646;18.318;2022-08-21T01:09:04;19.01;85.65
72106;SHT30;59975;47.646;18.318;2022-08-21T01:11:31;19.03;85.92
72106;SHT30;59975;47.646;18.318;2022-08-21T01:13:58;18.98;85.58
72106;SHT30;59975;47.646;18.318;2022-08-21T01:16:26;18.99;85.77
72106;SHT30;59975;47.646;18.318;2022-08-21T01:22:15;19.02;85.65
72106;SHT30;59975;47.646;18.318;2022-08-21T01:24:42;18.99;85.56
72106;SHT30;59975;47.646;18.318;2022-08-21T01:27:09;19.02;85.45
72106;SHT30;59975;47.646;18.318;2022-08-21T01:42:43;18.96;85.61
72106;SHT30;59975;47.646;18.318;2022-08-21T01:45:11;18.94;85.55
72106;SHT30;59975;47.646;18.318;2022-08-21T01:51:00;18.94;85.55
72106;SHT30;59975;47.646;18.318;2022-08-21T01:53:27;18.91;85.63
72106;SHT30;59975;47.646;18.318;2022-08-21T01:55:54;18.96;85.80
72106;SHT30;59975;47.646;18.318;2022-08-21T02:01:42;18.95;85.27
72106;SHT30;59975;47.646;18.318;2022-08-21T02:04:10;18.94;85.30
72106;SHT30;59975;47.646;18.318;2022-08-21T02:06:37;18.95;85.55
72106;SHT30;59975;47.646;18.318;2022-08-21T02:09:04;18.94;85.23
72106;SHT30;59975;47.646;18.318;2022-08-21T02:11:32;18.94;85.47
72106;SHT30;59975;47.646;18.318;2022-08-21T02:20:46;18.95;85.30
72106;SHT30;59975;47.646;18.318;2022-08-21T02:23:13;18.95;85.38
72106;SHT30;59975;47.646;18.318;2022-08-21T02:29:03;18.99;85.36
72106;SHT30;59975;47.646;18.318;2022-08-21T02:31:29;19.02;84.96
72106;SHT30;59975;47.646;18.318;2022-08-21T02:33:57;18.98;85.09
72106;SHT30;59975;47.646;18.318;2022-08-21T02:36:22;18.92;85.07
72106;SHT30;59975;47.646;18.318;2022-08-21T02:38:49;18.92;85.40
72106;SHT30;59975;47.646;18.318;2022-08-21T02:41:17;18.94;85.34
72106;SHT30;59975;47.646;18.318;2022-08-21T02:43:44;18.95;85.22
72106;SHT30;59975;47.646;18.318;2022-08-21T02:49:31;18.91;85.40
72106;SHT30;59975;47.646;18.318;2022-08-21T02:51:57;18.88;85.35
72106;SHT30;59975;47.646;18.318;2022-08-21T02:57:47;18.91;85.48
72106;SHT30;59975;47.646;18.318;2022-08-21T03:03:39;18.91;85.58
72106;SHT30;59975;47.646;18.318;2022-08-21T03:06:09;18.91;85.41
72106;SHT30;59975;47.646;18.318;2022-08-21T03:11:58;18.89;85.74
72106;SHT30;59975;47.646;18.318;2022-08-21T03:14:24;18.88;85.61
72106;SHT30;59975;47.646;18.318;2022-08-21T03:20:14;18.85;85.69
72106;SHT30;59975;47.646;18.318;2022-08-21T03:22:41;18.85;85.71
72106;SHT30;59975;47.646;18.318;2022-08-21T03:25:08;18.84;85.48
72106;SHT30;59975;47.646;18.318;2022-08-21T03:30:59;18.79;84.90
72106;SHT30;59975;47.646;18.318;2022-08-21T03:33:25;18.79;85.22
72106;SHT30;59975;47.646;18.318;2022-08-21T03:39:12;18.71;85.39
72106;SHT30;59975;47.646;18.318;2022-08-21T03:41:38;18.74;85.11
72106;SHT30;59975;47.646;18.318;2022-08-21T03:47:27;18.72;85.06
72106;SHT30;59975;47.646;18.318;2022-08-21T03:53:16;18.69;85.15
72106;SHT30;59975;47.646;18.318;2022-08-21T03:55:42;18.71;85.00
72106;SHT30;59975;47.646;18.318;2022-08-21T03:58:08;18.69;85.04
72106;SHT30;59975;47.646;18.318;2022-08-21T04:00:35;18.68;85.06
72106;SHT30;59975;47.646;18.318;2022-08-21T04:03:01;18.67;84.75
72106;SHT30;59975;47.646;18.318;2022-08-21T04:05:27;18.67;84.89
72106;SHT30;59975;47.646;18.318;2022-08-21T04:07:55;18.68;84.95
72106;SHT30;59975;47.646;18.318;2022-08-21T04:10:23;18.68;84.76
72106;SHT30;59975;47.646;18.318;2022-08-21T04:12:50;18.67;84.93
72106;SHT30;59975;47.646;18.318;2022-08-21T04:15:16;18.67;84.86
72106;SHT30;59975;47.646;18.318;2022-08-21T04:17:42;18.71;84.90
72106;SHT30;59975;47.646;18.318;2022-08-21T04:20:09;18.71;84.92
72106;SHT30;59975;47.646;18.318;2022-08-21T04:22:36;18.71;84.84
72106;SHT30;59975;47.646;18.318;2022-08-21T04:25:03;18.71;84.64
72106;SHT30;59975;47.646;18.318;2022-08-21T04:27:29;18.65;84.93
72106;SHT30;59975;47.646;18.318;2022-08-21T04:29:56;18.69;84.48
72106;SHT30;59975;47.646;18.318;2022-08-21T04:35:44;18.69;84.44
72106;SHT30;59975;47.646;18.318;2022-08-21T04:38:10;18.68;84.58
72106;SHT30;59975;47.646;18.318;2022-08-21T04:40:37;18.65;84.60
72106;SHT30;59975;47.646;18.318;2022-08-21T04:43:07;18.67;84.35
72106;SHT30;59975;47.646;18.318;2022-08-21T04:45:38;18.68;84.58
72106;SHT30;59975;47.646;18.318;2022-08-21T04:48:08;18.64;84.58
72106;SHT30;59975;47.646;18.318;2022-08-21T04:50:41;18.62;84.62
72106;SHT30;59975;47.646;18.318;2022-08-21T04:53:19;18.67;84.64
72106;SHT30;59975;47.646;18.318;2022-08-21T05:02:29;18.65;84.62
72106;SHT30;59975;47.646;18.318;2022-08-21T05:05:00;18.67;84.62
72106;SHT30;59975;47.646;18.318;2022-08-21T05:07:28;18.71;84.44
72106;SHT30;59975;47.646;18.318;2022-08-21T05:09:54;18.78;84.20
72106;SHT30;59975;47.646;18.318;2022-08-21T05:12:21;18.74;84.36
72106;SHT30;59975;47.646;18.318;2022-08-21T05:14:48;18.74;84.37
72106;SHT30;59975;47.646;18.318;2022-08-21T05:17:15;18.75;84.30
72106;SHT30;59975;47.646;18.318;2022-08-21T05:19:42;18.78;84.09
72106;SHT30;59975;47.646;18.318;2022-08-21T05:22:08;18.81;84.08
72106;SHT30;59975;47.646;18.318;2022-08-21T05:24:36;18.78;84.13
72106;SHT30;59975;47.646;18.318;2022-08-21T05:27:05;18.79;84.32
72106;SHT30;59975;47.646;18.318;2022-08-21T05:29:32;18.75;84.36
72106;SHT30;59975;47.646;18.318;2022-08-21T05:31:57;18.79;84.07
72106;SHT30;59975;47.646;18.318;2022-08-21T05:34:23;18.78;84.25
72106;SHT30;59975;47.646;18.318;2022-08-21T05:36:49;18.81;83.99
72106;SHT30;59975;47.646;18.318;2022-08-21T05:39:16;18.84;84.14
72106;SHT30;59975;47.646;18.318;2022-08-21T05:41:44;18.84;84.08
72106;SHT30;59975;47.646;18.318;2022-08-21T05:44:09;18.88;83.83
72106;SHT30;59975;47.646;18.318;2022-08-21T05:46:37;18.91;83.99
72106;SHT30;59975;47.646;18.318;2022-08-21T05:49:03;18.87;84.02
72106;SHT30;59975;47.646;18.318;2022-08-21T05:51:29;18.88;84.26
72106;SHT30;59975;47.646;18.318;2022-08-21T05:53:55;18.85;84.23
72106;SHT30;59975;47.646;18.318;2022-08-21T05:56:21;18.88;84.55
72106;SHT30;59975;47.646;18.318;2022-08-21T06:02:09;18.99;84.07
72106;SHT30;59975;47.646;18.318;2022-08-21T06:04:40;18.95;83.94
72106;SHT30;59975;47.646;18.318;2022-08-21T06:07:06;18.98;84.21
72106;SHT30;59975;47.646;18.318;2022-08-21T06:09:33;18.98;84.15
72106;SHT30;59975;47.646;18.318;2022-08-21T06:12:03;19.06;84.07
72106;SHT30;59975;47.646;18.318;2022-08-21T06:14:29;19.13;83.70
72106;SHT30;59975;47.646;18.318;2022-08-21T06:17:01;19.16;83.37
72106;SHT30;59975;47.646;18.318;2022-08-21T06:19:26;19.18;83.60
72106;SHT30;59975;47.646;18.318;2022-08-21T06:21:52;19.16;83.42
72106;SHT30;59975;47.646;18.318;2022-08-21T06:24:18;19.22;83.56
72106;SHT30;59975;47.646;18.318;2022-08-21T06:26:45;19.32;82.95
72106;SHT30;59975;47.646;18.318;2022-08-21T06:29:13;19.45;82.92
72106;SHT30;59975;47.646;18.318;2022-08-21T06:31:43;19.49;82.65
72106;SHT30;59975;47.646;18.318;2022-08-21T06:34:09;19.49;82.22
72106;SHT30;59975;47.646;18.318;2022-08-21T06:36:36;19.45;82.74
72106;SHT30;59975;47.646;18.318;2022-08-21T06:39:03;19.52;82.69
72106;SHT30;59975;47.646;18.318;2022-08-21T06:41:30;19.60;82.70
72106;SHT30;59975;47.646;18.318;2022-08-21T06:43:56;19.63;82.40
72106;SHT30;59975;47.646;18.318;2022-08-21T06:46:25;19.70;82.46
72106;SHT30;59975;47.646;18.318;2022-08-21T06:48:51;19.83;81.84
72106;SHT30;59975;47.646;18.318;2022-08-21T06:51:16;19.80;81.77
72106;SHT30;59975;47.646;18.318;2022-08-21T06:53:44;19.87;81.91
72106;SHT30;59975;47.646;18.318;2022-08-21T06:59:32;19.93;81.68
72106;SHT30;59975;47.646;18.318;2022-08-21T07:01:59;19.91;81.87
72106;SHT30;59975;47.646;18.318;2022-08-21T07:04:25;19.90;81.68
72106;SHT30;59975;47.646;18.318;2022-08-21T07:06:52;19.87;81.81
72106;SHT30;59975;47.646;18.318;2022-08-21T07:09:17;19.80;81.99
72106;SHT30;59975;47.646;18.318;2022-08-21T07:11:47;19.81;82.18
72106;SHT30;59975;47.646;18.318;2022-08-21T07:14:15;19.91;82.15
72106;SHT30;59975;47.646;18.318;2022-08-21T07:16:42;19.97;81.39
72106;SHT30;59975;47.646;18.318;2022-08-21T07:19:09;19.94;81.74
72106;SHT30;59975;47.646;18.318;2022-08-21T07:21:36;19.97;81.78
72106;SHT30;59975;47.646;18.318;2022-08-21T07:24:02;20.01;81.67
72106;SHT30;59975;47.646;18.318;2022-08-21T07:26:29;20.08;81.50
72106;SHT30;59975;47.646;18.318;2022-08-21T07:28:55;20.13;81.33
72106;SHT30;59975;47.646;18.318;2022-08-21T07:31:23;20.21;81.18
72106;SHT30;59975;47.646;18.318;2022-08-21T07:33:50;20.24;80.76
72106;SHT30;59975;47.646;18.318;2022-08-21T07:36:17;20.25;80.78
72106;SHT30;59975;47.646;18.318;2022-08-21T07:38:42;20.24;80.88
72106;SHT30;59975;47.646;18.318;2022-08-21T07:41:29;20.32;80.90
72106;SHT30;59975;47.646;18.318;2022-08-21T07:43:56;20.34;80.85
72106;SHT30;59975;47.646;18.318;2022-08-21T07:49:45;20.42;80.41
72106;SHT30;59975;47.646;18.318;2022-08-21T07:58:56;20.38;81.02
72106;SHT30;59975;47.646;18.318;2022-08-21T08:04:46;20.72;79.79
72106;SHT30;59975;47.646;18.318;2022-08-21T08:07:12;20.62;79.81
72106;SHT30;59975;47.646;18.318;2022-08-21T08:13:01;20.79;79.26
72106;SHT30;59975;47.646;18.318;2022-08-21T08:15:27;20.88;79.17
72106;SHT30;59975;47.646;18.318;2022-08-21T08:17:55;20.96;78.48
72106;SHT30;59975;47.646;18.318;2022-08-21T08:20:21;21.02;78.34
72106;SHT30;59975;47.646;18.318;2022-08-21T08:22:50;21.12;77.93
72106;SHT30;59975;47.646;18.318;2022-08-21T08:25:16;21.27;77.94
72106;SHT30;59975;47.646;18.318;2022-08-21T08:27:42;21.30;77.49
72106;SHT30;59975;47.646;18.318;2022-08-21T08:30:10;21.43;77.12
72106;SHT30;59975;47.646;18.318;2022-08-21T08:35:58;21.75;75.80
72106;SHT30;59975;47.646;18.318;2022-08-21T08:38:24;22.04;75.58
72106;SHT30;59975;47.646;18.318;2022-08-21T08:41:15;22.12;74.08
72106;SHT30;59975;47.646;18.318;2022-08-21T08:43:47;22.11;74.58
72106;SHT30;59975;47.646;18.318;2022-08-21T08:46:16;22.16;74.40
72106;SHT30;59975;47.646;18.318;2022-08-21T09:11:19;22.95;71.55
72106;SHT30;59975;47.646;18.318;2022-08-21T09:14:58;22.89;71.55
72106;SHT30;59975;47.646;18.318;2022-08-21T09:39:47;22.97;71.67
72106;SHT30;59975;47.646;18.318;2022-08-21T09:45:37;23.02;70.34
72106;SHT30;59975;47.646;18.318;2022-08-21T09:48:18;23.19;70.98
72106;SHT30;59975;47.646;18.318;2022-08-21T09:50:46;23.27;70.44
72106;SHT30;59975;47.646;18.318;2022-08-21T09:53:25;23.31;70.32
72106;SHT30;59975;47.646;18.318;2022-08-21T09:55:56;23.46;70.21
72106;SHT30;59975;47.646;18.318;2022-08-21T09:58:45;23.37;69.82
72106;SHT30;59975;47.646;18.318;2022-08-21T10:01:19;23.34;69.81
72106;SHT30;59975;47.646;18.318;2022-08-21T10:03:47;23.43;69.23
72106;SHT30;59975;47.646;18.318;2022-08-21T10:06:22;23.60;69.18
72106;SHT30;59975;47.646;18.318;2022-08-21T10:08:50;23.97;68.58
72106;SHT30;59975;47.646;18.318;2022-08-21T10:11:17;24.11;67.97
72106;SHT30;59975;47.646;18.318;2022-08-21T10:30:02;24.06;67.90
72106;SHT30;59975;47.646;18.318;2022-08-21T10:33:01;23.82;68.00
72106;SHT30;59975;47.646;18.318;2022-08-21T10:35:37;23.94;67.97
72106;SHT30;59975;47.646;18.318;2022-08-21T10:38:56;23.95;68.03
72106;SHT30;59975;47.646;18.318;2022-08-21T10:47:47;23.31;69.97
72106;SHT30;59975;47.646;18.318;2022-08-21T10:50:47;23.23;70.24
72106;SHT30;59975;47.646;18.318;2022-08-21T10:56:30;23.36;70.57
72106;SHT30;59975;47.646;18.318;2022-08-21T11:16:33;23.26;71.22
72106;SHT30;59975;47.646;18.318;2022-08-21T11:18:39;23.13;70.93
72106;SHT30;59975;47.646;18.318;2022-08-21T11:24:57;22.95;71.24
72106;SHT30;59975;47.646;18.318;2022-08-21T11:27:28;23.00;71.34
72106;SHT30;59975;47.646;18.318;2022-08-21T11:29:59;23.09;70.97
72106;SHT30;59975;47.646;18.318;2022-08-21T11:41:03;22.76;72.41
72106;SHT30;59975;47.646;18.318;2022-08-21T11:56:53;22.77;71.49
72106;SHT30;59975;47.646;18.318;2022-08-21T11:59:32;22.73;71.60
72106;SHT30;59975;47.646;18.318;2022-08-21T12:02:01;22.72;71.56
72106;SHT30;59975;47.646;18.318;2022-08-21T12:04:30;22.66;72.24
72106;SHT30;59975;47.646;18.318;2022-08-21T12:07:09;22.68;71.98
72106;SHT30;59975;47.646;18.318;2022-08-21T12:09:35;22.62;72.33
72106;SHT30;59975;47.646;18.318;2022-08-21T12:15:27;22.49;72.57
72106;SHT30;59975;47.646;18.318;2022-08-21T12:23:49;22.45;72.45
72106;SHT30;59975;47.646;18.318;2022-08-21T12:26:28;22.45;72.24
72106;SHT30;59975;47.646;18.318;2022-08-21T12:29:21;22.49;72.37
72106;SHT30;59975;47.646;18.318;2022-08-21T12:32:03;22.49;72.20
72106;SHT30;59975;47.646;18.318;2022-08-21T12:34:38;22.46;71.78
72106;SHT30;59975;47.646;18.318;2022-08-21T12:37:11;22.44;72.27
72106;SHT30;59975;47.646;18.318;2022-08-21T12:39:44;22.49;72.41
72106;SHT30;59975;47.646;18.318;2022-08-21T12:45:37;22.39;72.53
72106;SHT30;59975;47.646;18.318;2022-08-21T12:50:50;22.31;73.44
72106;SHT30;59975;47.646;18.318;2022-08-21T12:59:29;22.14;73.81
72106;SHT30;59975;47.646;18.318;2022-08-21T13:01:58;22.11;74.10
72106;SHT30;59975;47.646;18.318;2022-08-21T13:04:38;22.09;74.20
72106;SHT30;59975;47.646;18.318;2022-08-21T13:07:08;22.09;74.53
72106;SHT30;59975;47.646;18.318;2022-08-21T13:09:42;22.02;75.18
72106;SHT30;59975;47.646;18.318;2022-08-21T13:12:10;22.00;75.89
72106;SHT30;59975;47.646;18.318;2022-08-21T13:14:38;21.80;77.94
72106;SHT30;59975;47.646;18.318;2022-08-21T13:17:06;21.51;78.43
72106;SHT30;59975;47.646;18.318;2022-08-21T13:19:33;21.24;80.82
72106;SHT30;59975;47.646;18.318;2022-08-21T13:25:26;20.88;83.49
72106;SHT30;59975;47.646;18.318;2022-08-21T13:28:06;20.71;84.37
72106;SHT30;59975;47.646;18.318;2022-08-21T13:30:33;20.56;85.22
72106;SHT30;59975;47.646;18.318;2022-08-21T13:33:02;20.27;88.15
72106;SHT30;59975;47.646;18.318;2022-08-21T13:35:35;20.11;89.25
72106;SHT30;59975;47.646;18.318;2022-08-21T13:38:05;20.04;88.00
72106;SHT30;59975;47.646;18.318;2022-08-21T13:40:45;20.04;88.47
72106;SHT30;59975;47.646;18.318;2022-08-21T13:43:15;20.14;86.68
72106;SHT30;59975;47.646;18.318;2022-08-21T13:45:44;20.20;87.74
72106;SHT30;59975;47.646;18.318;2022-08-21T13:48:13;20.21;86.86
72106;SHT30;59975;47.646;18.318;2022-08-21T13:50:41;20.24;87.38
72106;SHT30;59975;47.646;18.318;2022-08-21T13:53:22;20.29;87.19
72106;SHT30;59975;47.646;18.318;2022-08-21T13:55:48;20.31;87.15
72106;SHT30;59975;47.646;18.318;2022-08-21T13:58:24;20.31;88.44
72106;SHT30;59975;47.646;18.318;2022-08-21T14:00:51;20.35;87.82
72106;SHT30;59975;47.646;18.318;2022-08-21T14:06:16;20.47;86.35
72106;SHT30;59975;47.646;18.318;2022-08-21T14:08:50;20.49;87.86
72106;SHT30;59975;47.646;18.318;2022-08-21T14:11:16;20.59;85.33
72106;SHT30;59975;47.646;18.318;2022-08-21T14:16:41;20.68;85.46
72106;SHT30;59975;47.646;18.318;2022-08-21T14:21:46;20.59;88.27
72106;SHT30;59975;47.646;18.318;2022-08-21T14:27:37;20.52;87.87
72106;SHT30;59975;47.646;18.318;2022-08-21T14:30:12;20.44;88.75
72106;SHT30;59975;47.646;18.318;2022-08-21T14:32:40;20.42;87.06
72106;SHT30;59975;47.646;18.318;2022-08-21T14:35:08;20.42;88.09
72106;SHT30;59975;47.646;18.318;2022-08-21T14:37:35;20.39;88.38
72106;SHT30;59975;47.646;18.318;2022-08-21T14:40:03;20.22;88.13
72106;SHT30;59975;47.646;18.318;2022-08-21T14:42:29;20.06;89.12
72106;SHT30;59975;47.646;18.318;2022-08-21T14:44:58;19.84;90.42
72106;SHT30;59975;47.646;18.318;2022-08-21T14:47:25;19.77;91.21
72106;SHT30;59975;47.646;18.318;2022-08-21T14:53:13;19.70;92.04
72106;SHT30;59975;47.646;18.318;2022-08-21T15:12:17;19.29;95.54
72106;SHT30;59975;47.646;18.318;2022-08-21T15:18:05;19.35;95.10
72106;SHT30;59975;47.646;18.318;2022-08-21T15:23:52;19.35;94.93
72106;SHT30;59975;47.646;18.318;2022-08-21T15:29:41;19.33;94.28
72106;SHT30;59975;47.646;18.318;2022-08-21T15:35:29;19.26;93.94
72106;SHT30;59975;47.646;18.318;2022-08-21T15:41:17;19.23;94.23
72106;SHT30;59975;47.646;18.318;2022-08-21T15:47:05;19.18;94.26
72106;SHT30;59975;47.646;18.318;2022-08-21T15:52:52;19.13;94.11
72106;SHT30;59975;47.646;18.318;2022-08-21T16:02:02;19.09;94.57
72106;SHT30;59975;47.646;18.318;2022-08-21T16:07:50;18.98;93.84
72106;SHT30;59975;47.646;18.318;2022-08-21T16:10:20;18.74;93.80
72106;SHT30;59975;47.646;18.318;2022-08-21T16:19:30;18.33;94.37
72106;SHT30;59975;47.646;18.318;2022-08-21T16:25:17;18.30;94.98
72106;SHT30;59975;47.646;18.318;2022-08-21T16:31:04;18.23;94.69
72106;SHT30;59975;47.646;18.318;2022-08-21T16:36:52;18.18;94.44
72106;SHT30;59975;47.646;18.318;2022-08-21T16:42:40;18.14;95.25
72106;SHT30;59975;47.646;18.318;2022-08-21T16:48:28;18.10;94.90
72106;SHT30;59975;47.646;18.318;2022-08-21T16:54:15;18.06;95.19
72106;SHT30;59975;47.646;18.318;2022-08-21T17:00:05;18.06;95.56
72106;SHT30;59975;47.646;18.318;2022-08-21T17:06:02;18.00;95.36
72106;SHT30;59975;47.646;18.318;2022-08-21T17:11:49;17.94;95.81
72106;SHT30;59975;47.646;18.318;2022-08-21T17:17:42;17.96;95.75
72106;SHT30;59975;47.646;18.318;2022-08-21T17:23:32;17.97;96.12
72106;SHT30;59975;47.646;18.318;2022-08-21T17:29:30;17.96;95.97
72106;SHT30;59975;47.646;18.318;2022-08-21T17:35:23;17.89;96.14
72106;SHT30;59975;47.646;18.318;2022-08-21T17:41:14;17.90;96.62
72106;SHT30;59975;47.646;18.318;2022-08-21T17:47:02;17.93;96.76
72106;SHT30;59975;47.646;18.318;2022-08-21T17:52:50;17.97;96.47
72106;SHT30;59975;47.646;18.318;2022-08-21T17:58:37;17.99;96.52
72106;SHT30;59975;47.646;18.318;2022-08-21T18:04:25;17.94;96.52
72106;SHT30;59975;47.646;18.318;2022-08-21T18:10:15;18.00;96.47
72106;SHT30;59975;47.646;18.318;2022-08-21T18:16:11;17.99;96.67
72106;SHT30;59975;47.646;18.318;2022-08-21T18:22:05;17.96;96.01
72106;SHT30;59975;47.646;18.318;2022-08-21T18:28:15;17.83;95.62
72106;SHT30;59975;47.646;18.318;2022-08-21T18:41:32;17.65;97.01
72106;SHT30;59975;47.646;18.318;2022-08-21T19:04:57;17.49;96.79
